sensor_id;sensor_type;location;lat;lon;timestamp;pressure;altitude;pressure_sealevel;temperature;humidity
62057;BME280;48016;50.284;18.860;2023-11-19T00:01:01;98647.05;;;-0.79;81.02
62057;BME280;48016;50.284;18.860;2023-11-19T00:03:48;98637.42;;;-0.78;81.00
62057;BME280;48016;50.284;18.860;2023-11-19T00:06:15;98641.59;;;-0.80;81.08
62057;BME280;48016;50.284;18.860;2023-11-19T00:08:43;98644.38;;;-0.82;81.00
62057;BME280;48016;50.284;18.860;2023-11-19T00:11:12;98640.86;;;-0.82;81.08
62057;BME280;48016;50.284;18.860;2023-11-19T00:13:41;98639.52;;;-0.84;80.89
62057;BME280;48016;50.284;18.860;2023-11-19T00:16:08;98634.01;;;-0.85;81.03
62057;BME280;48016;50.284;18.860;2023-11-19T00:18:36;98629.80;;;-0.86;81.22
62057;BME280;48016;50.284;18.860;2023-11-19T00:21:02;98626.24;;;-0.90;81.18
62057;BME280;48016;50.284;18.860;2023-11-19T00:23:29;98625.95;;;-0.93;81.19
62057;BME280;48016;50.284;18.860;2023-11-19T00:25:55;98625.05;;;-0.94;81.28
62057;BME280;48016;50.284;18.860;2023-11-19T00:28:22;98621.64;;;-0.94;81.27
62057;BME280;48016;50.284;18.860;2023-11-19T00:30:50;98625.89;;;-0.95;81.21
62057;BME280;48016;50.284;18.860;2023-11-19T00:33:16;98629.54;;;-0.96;81.46
62057;BME280;48016;50.284;18.860;2023-11-19T00:35:44;98632.16;;;-0.96;81.42
62057;BME280;48016;50.284;18.860;2023-11-19T00:38:10;98631.46;;;-0.94;81.48
62057;BME280;48016;50.284;18.860;2023-11-19T00:40:37;98627.04;;;-0.92;81.50
62057;BME280;48016;50.284;18.860;2023-11-19T00:43:03;98624.55;;;-0.89;81.52
62057;BME280;48016;50.284;18.860;2023-11-19T00:45:30;98623.43;;;-0.87;81.50
62057;BME280;48016;50.284;18.860;2023-11-19T00:47:56;98620.80;;;-0.86;81.59
62057;BME280;48016;50.284;18.860;2023-11-19T00:50:25;98620.92;;;-0.84;81.63
62057;BME280;48016;50.284;18.860;2023-11-19T00:52:52;98622.96;;;-0.82;81.79
62057;BME280;48016;50.284;18.860;2023-11-19T00:55:18;98615.75;;;-0.79;81.77
62057;BME280;48016;50.284;18.860;2023-11-19T00:57:45;98607.55;;;-0.77;81.71
62057;BME280;48016;50.284;18.860;2023-11-19T01:00:12;98603.67;;;-0.74;81.94
62057;BME280;48016;50.284;18.860;2023-11-19T01:02:45;98615.20;;;-0.73;81.87
62057;BME280;48016;50.284;18.860;2023-11-19T01:05:12;98622.95;;;-0.72;81.78
62057;BME280;48016;50.284;18.860;2023-11-19T01:07:42;98622.89;;;-0.74;81.71
62057;BME280;48016;50.284;18.860;2023-11-19T01:10:09;98613.22;;;-0.75;81.75
62057;BME280;48016;50.284;18.860;2023-11-19T01:12:36;98611.06;;;-0.77;81.76
62057;BME280;48016;50.284;18.860;2023-11-19T01:15:04;98604.05;;;-0.80;81.63
62057;BME280;48016;50.284;18.860;2023-11-19T01:17:31;98592.31;;;-0.86;81.68
62057;BME280;48016;50.284;18.860;2023-11-19T01:19:58;98593.65;;;-0.90;81.65
62057;BME280;48016;50.284;18.860;2023-11-19T01:22:24;98589.90;;;-0.93;81.88
62057;BME280;48016;50.284;18.860;2023-11-19T01:24:51;98582.56;;;-0.94;81.81
62057;BME280;48016;50.284;18.860;2023-11-19T01:27:18;98580.23;;;-0.94;81.86
62057;BME280;48016;50.284;18.860;2023-11-19T01:29:45;98574.30;;;-0.96;81.82
62057;BME280;48016;50.284;18.860;2023-11-19T01:32:11;98558.20;;;-0.98;81.98
62057;BME280;48016;50.284;18.860;2023-11-19T01:34:38;98546.67;;;-0.97;81.98
62057;BME280;48016;50.284;18.860;2023-11-19T01:37:05;98546.36;;;-1.01;81.81
62057;BME280;48016;50.284;18.860;2023-11-19T01:39:31;98556.92;;;-1.05;81.82
62057;BME280;48016;50.284;18.860;2023-11-19T01:41:58;98564.52;;;-1.08;81.90
62057;BME280;48016;50.284;18.860;2023-11-19T01:44:25;98560.41;;;-1.11;82.04
62057;BME280;48016;50.284;18.860;2023-11-19T01:46:52;98545.27;;;-1.13;82.03
62057;BME280;48016;50.284;18.860;2023-11-19T01:49:19;98541.23;;;-1.15;82.06
62057;BME280;48016;50.284;18.860;2023-11-19T01:51:47;98534.88;;;-1.15;82.12
62057;BME280;48016;50.284;18.860;2023-11-19T01:54:14;98529.56;;;-1.15;82.11
62057;BME280;48016;50.284;18.860;2023-11-19T01:56:42;98523.83;;;-1.14;82.26
62057;BME280;48016;50.284;18.860;2023-11-19T01:59:09;98516.36;;;-1.14;82.26
62057;BME280;48016;50.284;18.860;2023-11-19T02:01:37;98512.53;;;-1.11;82.33
62057;BME280;48016;50.284;18.860;2023-11-19T02:04:07;98506.33;;;-1.11;82.23
62057;BME280;48016;50.284;18.860;2023-11-19T02:06:34;98496.14;;;-1.12;82.08
62057;BME280;48016;50.284;18.860;2023-11-19T02:09:04;98484.95;;;-1.13;82.25
62057;BME280;48016;50.284;18.860;2023-11-19T02:11:34;98465.84;;;-1.13;82.31
62057;BME280;48016;50.284;18.860;2023-11-19T02:14:01;98460.84;;;-1.14;82.29
62057;BME280;48016;50.284;18.860;2023-11-19T02:16:29;98452.73;;;-1.16;82.38
62057;BME280;48016;50.284;18.860;2023-11-19T02:18:56;98442.41;;;-1.15;82.23
62057;BME280;48016;50.284;18.860;2023-11-19T02:21:22;98434.65;;;-1.15;82.23
62057;BME280;48016;50.284;18.860;2023-11-19T02:23:49;98426.08;;;-1.18;82.28
62057;BME280;48016;50.284;18.860;2023-11-19T02:26:24;98425.86;;;-1.21;82.17
62057;BME280;48016;50.284;18.860;2023-11-19T02:28:52;98434.54;;;-1.26;82.29
62057;BME280;48016;50.284;18.860;2023-11-19T02:31:19;98429.14;;;-1.29;82.44
62057;BME280;48016;50.284;18.860;2023-11-19T02:33:46;98429.40;;;-1.28;82.53
62057;BME280;48016;50.284;18.860;2023-11-19T02:36:13;98422.84;;;-1.29;82.68
62057;BME280;48016;50.284;18.860;2023-11-19T02:38:39;98413.02;;;-1.31;82.73
62057;BME280;48016;50.284;18.860;2023-11-19T02:41:06;98405.20;;;-1.33;82.80
62057;BME280;48016;50.284;18.860;2023-11-19T02:43:33;98397.56;;;-1.32;82.83
62057;BME280;48016;50.284;18.860;2023-11-19T02:46:01;98391.80;;;-1.31;82.96
62057;BME280;48016;50.284;18.860;2023-11-19T02:48:28;98385.48;;;-1.34;82.99
62057;BME280;48016;50.284;18.860;2023-11-19T02:50:54;98382.39;;;-1.38;83.22
62057;BME280;48016;50.284;18.860;2023-11-19T02:53:21;98381.41;;;-1.40;83.16
62057;BME280;48016;50.284;18.860;2023-11-19T02:55:48;98380.11;;;-1.40;83.05
62057;BME280;48016;50.284;18.860;2023-11-19T02:58:16;98375.97;;;-1.40;83.22
62057;BME280;48016;50.284;18.860;2023-11-19T03:00:46;98368.53;;;-1.43;83.24
62057;BME280;48016;50.284;18.860;2023-11-19T03:03:20;98363.89;;;-1.43;83.41
62057;BME280;48016;50.284;18.860;2023-11-19T03:05:49;98374.52;;;-1.42;83.33
62057;BME280;48016;50.284;18.860;2023-11-19T03:08:15;98382.20;;;-1.41;83.43
62057;BME280;48016;50.284;18.860;2023-11-19T03:10:43;98383.92;;;-1.41;83.49
62057;BME280;48016;50.284;18.860;2023-11-19T03:13:12;98382.31;;;-1.40;83.37
62057;BME280;48016;50.284;18.860;2023-11-19T03:15:41;98385.98;;;-1.41;83.43
62057;BME280;48016;50.284;18.860;2023-11-19T03:18:08;98383.21;;;-1.42;83.56
62057;BME280;48016;50.284;18.860;2023-11-19T03:20:34;98371.69;;;-1.43;83.78
62057;BME280;48016;50.284;18.860;2023-11-19T03:23:01;98362.47;;;-1.43;83.81
62057;BME280;48016;50.284;18.860;2023-11-19T03:25:28;98351.85;;;-1.43;83.67
62057;BME280;48016;50.284;18.860;2023-11-19T03:28:00;98339.57;;;-1.45;83.81
62057;BME280;48016;50.284;18.860;2023-11-19T03:30:30;98335.98;;;-1.48;83.99
62057;BME280;48016;50.284;18.860;2023-11-19T03:32:57;98334.54;;;-1.49;84.25
62057;BME280;48016;50.284;18.860;2023-11-19T03:35:24;98338.23;;;-1.50;84.20
62057;BME280;48016;50.284;18.860;2023-11-19T03:37:51;98336.32;;;-1.49;84.11
62057;BME280;48016;50.284;18.860;2023-11-19T03:40:18;98339.44;;;-1.48;84.14
62057;BME280;48016;50.284;18.860;2023-11-19T03:42:48;98335.75;;;-1.47;84.06
62057;BME280;48016;50.284;18.860;2023-11-19T03:45:14;98319.79;;;-1.45;84.03
62057;BME280;48016;50.284;18.860;2023-11-19T03:47:42;98295.87;;;-1.45;84.03
62057;BME280;48016;50.284;18.860;2023-11-19T03:50:08;98295.64;;;-1.45;83.99
62057;BME280;48016;50.284;18.860;2023-11-19T03:52:35;98297.45;;;-1.45;84.10
62057;BME280;48016;50.284;18.860;2023-11-19T03:55:02;98295.41;;;-1.44;84.08
62057;BME280;48016;50.284;18.860;2023-11-19T03:57:32;98290.00;;;-1.43;84.05
62057;BME280;48016;50.284;18.860;2023-11-19T03:59:58;98288.14;;;-1.42;84.05
62057;BME280;48016;50.284;18.860;2023-11-19T04:02:25;98275.52;;;-1.40;84.10
62057;BME280;48016;50.284;18.860;2023-11-19T04:04:54;98275.11;;;-1.38;84.18
62057;BME280;48016;50.284;18.860;2023-11-19T04:07:21;98273.52;;;-1.37;84.08
62057;BME280;48016;50.284;18.860;2023-11-19T04:09:48;98267.39;;;-1.34;84.19
62057;BME280;48016;50.284;18.860;2023-11-19T04:12:15;98268.85;;;-1.31;84.31
62057;BME280;48016;50.284;18.860;2023-11-19T04:14:42;98271.91;;;-1.29;84.32
62057;BME280;48016;50.284;18.860;2023-11-19T04:17:08;98281.53;;;-1.26;84.28
62057;BME280;48016;50.284;18.860;2023-11-19T04:19:35;98278.00;;;-1.23;84.29
62057;BME280;48016;50.284;18.860;2023-11-19T04:22:01;98270.91;;;-1.20;84.20
62057;BME280;48016;50.284;18.860;2023-11-19T04:24:28;98264.14;;;-1.20;84.18
62057;BME280;48016;50.284;18.860;2023-11-19T04:26:55;98260.30;;;-1.17;84.27
62057;BME280;48016;50.284;18.860;2023-11-19T04:29:22;98256.51;;;-1.14;84.21
62057;BME280;48016;50.284;18.860;2023-11-19T04:31:48;98254.27;;;-1.11;84.00
62057;BME280;48016;50.284;18.860;2023-11-19T04:34:15;98242.81;;;-1.10;84.15
62057;BME280;48016;50.284;18.860;2023-11-19T04:36:42;98237.36;;;-1.10;84.10
62057;BME280;48016;50.284;18.860;2023-11-19T04:39:10;98239.85;;;-1.10;84.07
62057;BME280;48016;50.284;18.860;2023-11-19T04:41:51;98238.35;;;-1.08;84.16
62057;BME280;48016;50.284;18.860;2023-11-19T04:44:20;98235.79;;;-1.05;84.21
62057;BME280;48016;50.284;18.860;2023-11-19T04:46:47;98243.20;;;-1.03;84.03
62057;BME280;48016;50.284;18.860;2023-11-19T04:49:14;98245.60;;;-1.04;83.98
62057;BME280;48016;50.284;18.860;2023-11-19T04:51:41;98247.94;;;-1.03;83.84
62057;BME280;48016;50.284;18.860;2023-11-19T04:54:10;98244.85;;;-1.02;83.79
62057;BME280;48016;50.284;18.860;2023-11-19T04:56:37;98242.70;;;-1.03;83.67
62057;BME280;48016;50.284;18.860;2023-11-19T04:59:04;98236.33;;;-1.05;83.76
62057;BME280;48016;50.284;18.860;2023-11-19T05:01:35;98229.77;;;-1.06;83.85
62057;BME280;48016;50.284;18.860;2023-11-19T05:04:02;98221.92;;;-1.08;83.81
62057;BME280;48016;50.284;18.860;2023-11-19T05:06:29;98206.45;;;-1.09;83.63
62057;BME280;48016;50.284;18.860;2023-11-19T05:08:56;98197.02;;;-1.12;83.94
62057;BME280;48016;50.284;18.860;2023-11-19T05:11:23;98190.28;;;-1.13;83.84
62057;BME280;48016;50.284;18.860;2023-11-19T05:13:50;98186.80;;;-1.14;83.84
62057;BME280;48016;50.284;18.860;2023-11-19T05:16:16;98189.92;;;-1.13;84.05
62057;BME280;48016;50.284;18.860;2023-11-19T05:18:43;98181.04;;;-1.11;83.97
62057;BME280;48016;50.284;18.860;2023-11-19T05:21:11;98174.64;;;-1.09;83.88
62057;BME280;48016;50.284;18.860;2023-11-19T05:23:37;98173.84;;;-1.09;83.82
62057;BME280;48016;50.284;18.860;2023-11-19T05:26:04;98170.79;;;-1.08;84.03
62057;BME280;48016;50.284;18.860;2023-11-19T05:28:31;98172.95;;;-1.09;83.95
62057;BME280;48016;50.284;18.860;2023-11-19T05:30:57;98164.35;;;-1.07;84.07
62057;BME280;48016;50.284;18.860;2023-11-19T05:33:24;98158.92;;;-1.08;83.92
62057;BME280;48016;50.284;18.860;2023-11-19T05:35:50;98154.55;;;-1.08;84.08
62057;BME280;48016;50.284;18.860;2023-11-19T05:38:17;98143.40;;;-1.08;83.95
62057;BME280;48016;50.284;18.860;2023-11-19T05:40:44;98133.71;;;-1.09;84.32
62057;BME280;48016;50.284;18.860;2023-11-19T05:43:10;98131.44;;;-1.09;84.25
62057;BME280;48016;50.284;18.860;2023-11-19T05:45:37;98137.60;;;-1.09;84.27
62057;BME280;48016;50.284;18.860;2023-11-19T05:48:03;98138.08;;;-1.07;84.38
62057;BME280;48016;50.284;18.860;2023-11-19T05:50:30;98144.86;;;-1.06;84.59
62057;BME280;48016;50.284;18.860;2023-11-19T05:52:57;98157.46;;;-1.05;84.70
62057;BME280;48016;50.284;18.860;2023-11-19T05:55:24;98168.16;;;-1.03;84.55
62057;BME280;48016;50.284;18.860;2023-11-19T05:57:51;98165.51;;;-0.98;84.67
62057;BME280;48016;50.284;18.860;2023-11-19T06:00:18;98164.48;;;-0.94;84.52
62057;BME280;48016;50.284;18.860;2023-11-19T06:02:45;98165.54;;;-0.91;84.60
62057;BME280;48016;50.284;18.860;2023-11-19T06:05:11;98171.05;;;-0.89;84.62
62057;BME280;48016;50.284;18.860;2023-11-19T06:07:38;98166.02;;;-0.89;84.79
62057;BME280;48016;50.284;18.860;2023-11-19T06:10:05;98158.17;;;-0.90;84.83
62057;BME280;48016;50.284;18.860;2023-11-19T06:12:33;98160.88;;;-0.92;84.89
62057;BME280;48016;50.284;18.860;2023-11-19T06:15:07;98163.68;;;-0.94;85.08
62057;BME280;48016;50.284;18.860;2023-11-19T06:17:34;98164.88;;;-0.93;85.10
62057;BME280;48016;50.284;18.860;2023-11-19T06:20:01;98153.97;;;-0.94;85.08
62057;BME280;48016;50.284;18.860;2023-11-19T06:22:30;98144.30;;;-0.96;85.20
62057;BME280;48016;50.284;18.860;2023-11-19T06:24:57;98147.52;;;-0.96;85.40
62057;BME280;48016;50.284;18.860;2023-11-19T06:27:24;98145.33;;;-0.92;85.45
62057;BME280;48016;50.284;18.860;2023-11-19T06:29:51;98135.23;;;-0.89;85.46
62057;BME280;48016;50.284;18.860;2023-11-19T06:32:17;98122.99;;;-0.84;85.51
62057;BME280;48016;50.284;18.860;2023-11-19T06:34:44;98109.91;;;-0.79;85.56
62057;BME280;48016;50.284;18.860;2023-11-19T06:37:11;98100.27;;;-0.75;85.52
62057;BME280;48016;50.284;18.860;2023-11-19T06:39:37;98098.70;;;-0.74;85.65
62057;BME280;48016;50.284;18.860;2023-11-19T06:42:04;98102.06;;;-0.72;85.59
62057;BME280;48016;50.284;18.860;2023-11-19T06:44:31;98096.36;;;-0.71;85.66
62057;BME280;48016;50.284;18.860;2023-11-19T06:46:57;98095.70;;;-0.68;85.47
62057;BME280;48016;50.284;18.860;2023-11-19T06:49:24;98096.65;;;-0.67;85.66
62057;BME280;48016;50.284;18.860;2023-11-19T06:51:51;98089.17;;;-0.67;85.68
62057;BME280;48016;50.284;18.860;2023-11-19T06:54:17;98078.89;;;-0.67;85.60
62057;BME280;48016;50.284;18.860;2023-11-19T06:56:44;98082.06;;;-0.67;85.76
62057;BME280;48016;50.284;18.860;2023-11-19T06:59:10;98088.80;;;-0.67;85.75
62057;BME280;48016;50.284;18.860;2023-11-19T07:01:37;98094.77;;;-0.66;86.18
62057;BME280;48016;50.284;18.860;2023-11-19T07:04:04;98094.20;;;-0.63;86.07
62057;BME280;48016;50.284;18.860;2023-11-19T07:06:35;98076.30;;;-0.60;86.03
62057;BME280;48016;50.284;18.860;2023-11-19T07:09:02;98074.98;;;-0.58;86.04
62057;BME280;48016;50.284;18.860;2023-11-19T07:11:39;98082.64;;;-0.54;86.10
62057;BME280;48016;50.284;18.860;2023-11-19T07:14:09;98074.45;;;-0.52;86.04
62057;BME280;48016;50.284;18.860;2023-11-19T07:16:36;98072.05;;;-0.52;86.14
62057;BME280;48016;50.284;18.860;2023-11-19T07:19:05;98067.04;;;-0.50;86.24
62057;BME280;48016;50.284;18.860;2023-11-19T07:21:32;98066.38;;;-0.44;86.22
62057;BME280;48016;50.284;18.860;2023-11-19T07:24:00;98061.22;;;-0.38;86.33
62057;BME280;48016;50.284;18.860;2023-11-19T07:26:26;98064.32;;;-0.33;86.11
62057;BME280;48016;50.284;18.860;2023-11-19T07:28:53;98067.08;;;-0.28;86.26
62057;BME280;48016;50.284;18.860;2023-11-19T07:31:19;98073.60;;;-0.24;86.08
62057;BME280;48016;50.284;18.860;2023-11-19T07:33:46;98077.06;;;-0.21;86.11
62057;BME280;48016;50.284;18.860;2023-11-19T07:36:14;98068.54;;;-0.13;86.22
62057;BME280;48016;50.284;18.860;2023-11-19T07:38:40;98050.17;;;-0.10;86.08
62057;BME280;48016;50.284;18.860;2023-11-19T07:41:07;98040.40;;;-0.05;86.02
62057;BME280;48016;50.284;18.860;2023-11-19T07:43:36;98052.99;;;0.01;86.20
62057;BME280;48016;50.284;18.860;2023-11-19T07:46:02;98054.70;;;0.04;85.82
62057;BME280;48016;50.284;18.860;2023-11-19T07:48:30;98039.14;;;0.08;85.79
62057;BME280;48016;50.284;18.860;2023-11-19T07:50:57;98020.31;;;0.14;85.94
62057;BME280;48016;50.284;18.860;2023-11-19T07:53:24;98013.52;;;0.17;85.86
62057;BME280;48016;50.284;18.860;2023-11-19T07:55:51;98014.40;;;0.21;85.78
62057;BME280;48016;50.284;18.860;2023-11-19T07:58:17;98009.07;;;0.26;85.67
62057;BME280;48016;50.284;18.860;2023-11-19T08:00:44;98000.54;;;0.30;85.48
62057;BME280;48016;50.284;18.860;2023-11-19T08:03:11;97994.50;;;0.33;85.44
62057;BME280;48016;50.284;18.860;2023-11-19T08:05:37;97988.29;;;0.36;85.44
62057;BME280;48016;50.284;18.860;2023-11-19T08:08:04;97994.42;;;0.42;85.21
62057;BME280;48016;50.284;18.860;2023-11-19T08:10:30;97993.77;;;0.50;85.33
62057;BME280;48016;50.284;18.860;2023-11-19T08:12:59;97988.17;;;0.54;85.26
62057;BME280;48016;50.284;18.860;2023-11-19T08:15:26;97989.80;;;0.61;85.14
62057;BME280;48016;50.284;18.860;2023-11-19T08:17:52;97994.89;;;0.64;85.10
62057;BME280;48016;50.284;18.860;2023-11-19T08:20:19;97993.83;;;0.67;84.92
62057;BME280;48016;50.284;18.860;2023-11-19T08:22:46;97993.52;;;0.71;84.76
62057;BME280;48016;50.284;18.860;2023-11-19T08:25:12;97990.48;;;0.70;84.59
62057;BME280;48016;50.284;18.860;2023-11-19T08:27:39;97986.77;;;0.71;84.51
62057;BME280;48016;50.284;18.860;2023-11-19T08:30:06;97975.59;;;0.71;84.52
62057;BME280;48016;50.284;18.860;2023-11-19T08:32:34;97970.17;;;0.68;84.33
62057;BME280;48016;50.284;18.860;2023-11-19T08:35:00;97977.38;;;0.69;84.52
62057;BME280;48016;50.284;18.860;2023-11-19T08:37:27;97971.19;;;0.67;84.21
62057;BME280;48016;50.284;18.860;2023-11-19T08:39:54;97972.97;;;0.68;84.33
62057;BME280;48016;50.284;18.860;2023-11-19T08:42:20;97972.50;;;0.66;84.04
62057;BME280;48016;50.284;18.860;2023-11-19T08:44:51;97970.41;;;0.65;84.06
62057;BME280;48016;50.284;18.860;2023-11-19T08:47:21;97965.11;;;0.68;84.16
62057;BME280;48016;50.284;18.860;2023-11-19T08:49:52;97960.80;;;0.70;83.88
62057;BME280;48016;50.284;18.860;2023-11-19T08:52:19;97961.18;;;0.70;83.82
62057;BME280;48016;50.284;18.860;2023-11-19T08:54:45;97956.30;;;0.72;83.89
62057;BME280;48016;50.284;18.860;2023-11-19T08:57:12;97949.36;;;0.75;83.58
62057;BME280;48016;50.284;18.860;2023-11-19T08:59:39;97938.88;;;0.75;83.46
62057;BME280;48016;50.284;18.860;2023-11-19T09:02:05;97930.77;;;0.74;83.45
62057;BME280;48016;50.284;18.860;2023-11-19T09:04:33;97928.11;;;0.73;83.45
62057;BME280;48016;50.284;18.860;2023-11-19T09:06:59;97924.67;;;0.71;83.59
62057;BME280;48016;50.284;18.860;2023-11-19T09:09:26;97927.41;;;0.73;83.40
62057;BME280;48016;50.284;18.860;2023-11-19T09:11:52;97922.46;;;0.74;83.38
62057;BME280;48016;50.284;18.860;2023-11-19T09:14:19;97920.48;;;0.78;83.53
62057;BME280;48016;50.284;18.860;2023-11-19T09:16:50;97925.02;;;0.85;83.53
62057;BME280;48016;50.284;18.860;2023-11-19T09:19:17;97927.20;;;0.92;83.49
62057;BME280;48016;50.284;18.860;2023-11-19T09:21:43;97926.44;;;0.98;83.43
62057;BME280;48016;50.284;18.860;2023-11-19T09:24:10;97919.27;;;1.04;83.14
62057;BME280;48016;50.284;18.860;2023-11-19T09:26:36;97907.60;;;1.06;82.99
62057;BME280;48016;50.284;18.860;2023-11-19T09:29:05;97898.69;;;1.09;82.93
62057;BME280;48016;50.284;18.860;2023-11-19T09:31:32;97896.04;;;1.10;82.72
62057;BME280;48016;50.284;18.860;2023-11-19T09:33:58;97892.86;;;1.14;82.90
62057;BME280;48016;50.284;18.860;2023-11-19T09:36:25;97879.48;;;1.21;82.65
62057;BME280;48016;50.284;18.860;2023-11-19T09:38:51;97863.50;;;1.26;82.49
62057;BME280;48016;50.284;18.860;2023-11-19T09:41:18;97859.45;;;1.29;82.35
62057;BME280;48016;50.284;18.860;2023-11-19T09:43:45;97861.04;;;1.34;82.23
62057;BME280;48016;50.284;18.860;2023-11-19T09:46:16;97858.33;;;1.36;82.30
62057;BME280;48016;50.284;18.860;2023-11-19T09:48:43;97845.83;;;1.38;82.24
62057;BME280;48016;50.284;18.860;2023-11-19T09:51:11;97841.06;;;1.42;82.27
62057;BME280;48016;50.284;18.860;2023-11-19T09:53:38;97836.80;;;1.44;82.12
62057;BME280;48016;50.284;18.860;2023-11-19T09:56:05;97830.93;;;1.47;82.32
62057;BME280;48016;50.284;18.860;2023-11-19T09:58:34;97827.30;;;1.55;82.04
62057;BME280;48016;50.284;18.860;2023-11-19T10:01:01;97822.33;;;1.60;82.00
62057;BME280;48016;50.284;18.860;2023-11-19T10:03:34;97814.04;;;1.64;82.01
62057;BME280;48016;50.284;18.860;2023-11-19T10:06:07;97802.80;;;1.68;81.80
62057;BME280;48016;50.284;18.860;2023-11-19T10:08:36;97801.64;;;1.74;81.75
62057;BME280;48016;50.284;18.860;2023-11-19T10:11:03;97792.75;;;1.82;81.35
62057;BME280;48016;50.284;18.860;2023-11-19T10:13:31;97794.41;;;1.88;81.17
62057;BME280;48016;50.284;18.860;2023-11-19T10:15:57;97794.37;;;1.96;81.32
62057;BME280;48016;50.284;18.860;2023-11-19T10:18:27;97794.98;;;2.04;81.11
62057;BME280;48016;50.284;18.860;2023-11-19T10:20:53;97795.83;;;2.08;81.09
62057;BME280;48016;50.284;18.860;2023-11-19T10:23:21;97787.41;;;2.12;80.88
62057;BME280;48016;50.284;18.860;2023-11-19T10:25:47;97770.16;;;2.13;80.86
62057;BME280;48016;50.284;18.860;2023-11-19T10:28:18;97767.40;;;2.15;80.81
62057;BME280;48016;50.284;18.860;2023-11-19T10:30:44;97771.66;;;2.17;80.63
62057;BME280;48016;50.284;18.860;2023-11-19T10:33:14;97768.40;;;2.20;80.81
62057;BME280;48016;50.284;18.860;2023-11-19T10:35:53;97765.41;;;2.22;80.79
62057;BME280;48016;50.284;18.860;2023-11-19T10:38:20;97762.66;;;2.25;80.87
62057;BME280;48016;50.284;18.860;2023-11-19T10:40:49;97751.00;;;2.25;80.71
62057;BME280;48016;50.284;18.860;2023-11-19T10:43:18;97739.52;;;2.26;80.84
62057;BME280;48016;50.284;18.860;2023-11-19T10:45:45;97727.73;;;2.28;80.78
62057;BME280;48016;50.284;18.860;2023-11-19T10:48:12;97722.64;;;2.29;80.73
62057;BME280;48016;50.284;18.860;2023-11-19T10:50:40;97718.73;;;2.31;80.88
62057;BME280;48016;50.284;18.860;2023-11-19T10:53:09;97717.93;;;2.32;80.71
62057;BME280;48016;50.284;18.860;2023-11-19T10:55:37;97713.30;;;2.32;80.72
62057;BME280;48016;50.284;18.860;2023-11-19T10:58:08;97706.92;;;2.28;80.40
62057;BME280;48016;50.284;18.860;2023-11-19T11:00:49;97703.56;;;2.22;80.55
62057;BME280;48016;50.284;18.860;2023-11-19T11:03:18;97711.30;;;2.18;80.54
62057;BME280;48016;50.284;18.860;2023-11-19T11:05:47;97713.42;;;2.13;80.64
62057;BME280;48016;50.284;18.860;2023-11-19T11:08:14;97710.04;;;2.11;80.85
62057;BME280;48016;50.284;18.860;2023-11-19T11:11:00;97710.90;;;2.08;80.92
62057;BME280;48016;50.284;18.860;2023-11-19T11:13:28;97699.14;;;2.07;80.97
62057;BME280;48016;50.284;18.860;2023-11-19T11:15:56;97691.36;;;2.04;81.31
62057;BME280;48016;50.284;18.860;2023-11-19T11:18:26;97687.49;;;2.00;81.42
62057;BME280;48016;50.284;18.860;2023-11-19T11:20:57;97686.67;;;1.94;81.48
62057;BME280;48016;50.284;18.860;2023-11-19T11:29:13;97659.50;;;1.70;81.96
62057;BME280;48016;50.284;18.860;2023-11-19T11:37:15;97654.99;;;1.46;82.44
62057;BME280;48016;50.284;18.860;2023-11-19T11:39:46;97649.37;;;1.42;82.50
62057;BME280;48016;50.284;18.860;2023-11-19T11:50:21;97635.94;;;1.20;83.12
62057;BME280;48016;50.284;18.860;2023-11-19T11:55:25;97634.25;;;1.11;83.29
62057;BME280;48016;50.284;18.860;2023-11-19T11:57:51;97632.05;;;1.09;83.46
62057;BME280;48016;50.284;18.860;2023-11-19T12:00:22;97626.41;;;1.05;83.52
62057;BME280;48016;50.284;18.860;2023-11-19T12:02:49;97621.73;;;1.06;83.72
62057;BME280;48016;50.284;18.860;2023-11-19T12:05:16;97618.11;;;1.03;83.88
62057;BME280;48016;50.284;18.860;2023-11-19T12:07:59;97613.76;;;1.03;84.08
62057;BME280;48016;50.284;18.860;2023-11-19T12:10:31;97610.52;;;1.06;84.00
62057;BME280;48016;50.284;18.860;2023-11-19T12:12:59;97608.30;;;1.08;84.07
62057;BME280;48016;50.284;18.860;2023-11-19T12:15:26;97608.37;;;1.11;84.08
62057;BME280;48016;50.284;18.860;2023-11-19T12:17:54;97602.73;;;1.08;84.31
62057;BME280;48016;50.284;18.860;2023-11-19T12:20:25;97601.14;;;1.07;84.41
62057;BME280;48016;50.284;18.860;2023-11-19T12:22:53;97601.23;;;1.09;84.45
62057;BME280;48016;50.284;18.860;2023-11-19T12:25:20;97599.02;;;1.12;84.44
62057;BME280;48016;50.284;18.860;2023-11-19T12:27:49;97590.11;;;1.10;84.82
62057;BME280;48016;50.284;18.860;2023-11-19T12:30:22;97589.34;;;1.10;84.79
62057;BME280;48016;50.284;18.860;2023-11-19T12:32:50;97580.73;;;1.11;84.56
62057;BME280;48016;50.284;18.860;2023-11-19T12:35:19;97575.02;;;1.12;84.61
62057;BME280;48016;50.284;18.860;2023-11-19T12:37:47;97566.05;;;1.13;84.62
62057;BME280;48016;50.284;18.860;2023-11-19T12:40:15;97566.04;;;1.14;84.94
62057;BME280;48016;50.284;18.860;2023-11-19T12:42:44;97563.41;;;1.17;84.93
62057;BME280;48016;50.284;18.860;2023-11-19T12:45:11;97550.05;;;1.18;84.95
62057;BME280;48016;50.284;18.860;2023-11-19T12:47:39;97541.04;;;1.17;85.25
62057;BME280;48016;50.284;18.860;2023-11-19T12:50:07;97540.91;;;1.19;85.36
62057;BME280;48016;50.284;18.860;2023-11-19T12:52:36;97541.42;;;1.22;85.18
62057;BME280;48016;50.284;18.860;2023-11-19T12:55:03;97539.45;;;1.23;85.26
62057;BME280;48016;50.284;18.860;2023-11-19T12:57:39;97540.75;;;1.24;85.29
62057;BME280;48016;50.284;18.860;2023-11-19T13:00:07;97540.05;;;1.25;85.33
62057;BME280;48016;50.284;18.860;2023-11-19T13:02:53;97535.45;;;1.27;85.23
62057;BME280;48016;50.284;18.860;2023-11-19T13:07:50;97531.50;;;1.30;85.60
62057;BME280;48016;50.284;18.860;2023-11-19T13:10:17;97527.80;;;1.32;85.64
62057;BME280;48016;50.284;18.860;2023-11-19T13:12:43;97524.62;;;1.35;85.69
62057;BME280;48016;50.284;18.860;2023-11-19T13:15:23;97518.41;;;1.39;85.87
62057;BME280;48016;50.284;18.860;2023-11-19T13:17:51;97512.25;;;1.42;85.85
62057;BME280;48016;50.284;18.860;2023-11-19T13:20:17;97513.37;;;1.46;85.90
62057;BME280;48016;50.284;18.860;2023-11-19T13:22:57;97513.34;;;1.50;86.06